sensor_id;sensor_type;location;lat;lon;timestamp;temperature;humidity
16198;DHT22;8206;51.440;6.914;2023-08-20T00:00:35;19.00;99.90
16198;DHT22;8206;51.440;6.914;2023-08-20T00:03:03;19.00;99.90
16198;DHT22;8206;51.440;6.914;2023-08-20T00:05:31;19.00;99.90
16198;DHT22;8206;51.440;6.914;2023-08-20T00:07:58;19.00;99.90
16198;DHT22;8206;51.440;6.914;2023-08-20T00:10:24;19.00;99.90
16198;DHT22;8206;51.440;6.914;2023-08-20T00:12:52;18.90;99.90
16198;DHT22;8206;51.440;6.914;2023-08-20T00:15:19;18.90;99.90
16198;DHT22;8206;51.440;6.914;2023-08-20T00:17:48;18.90;99.90
16198;DHT22;8206;51.440;6.914;2023-08-20T00:20:15;18.90;99.90
16198;DHT22;8206;51.440;6.914;2023-08-20T00:22:42;18.90;99.90
16198;DHT22;8206;51.440;6.914;2023-08-20T00:25:12;19.00;99.90
16198;DHT22;8206;51.440;6.914;2023-08-20T00:27:39;19.00;99.90
16198;DHT22;8206;51.440;6.914;2023-08-20T00:30:08;19.00;99.90
16198;DHT22;8206;51.440;6.914;2023-08-20T00:32:35;19.00;99.90
16198;DHT22;8206;51.440;6.914;2023-08-20T00:35:02;19.00;99.90
16198;DHT22;8206;51.440;6.914;2023-08-20T00:37:29;19.00;99.90
16198;DHT22;8206;51.440;6.914;2023-08-20T00:39:56;19.00;99.90
16198;DHT22;8206;51.440;6.914;2023-08-20T00:42:23;18.90;99.90
16198;DHT22;8206;51.440;6.914;2023-08-20T00:44:51;18.90;99.90
16198;DHT22;8206;51.440;6.914;2023-08-20T00:47:19;18.80;99.90
16198;DHT22;8206;51.440;6.914;2023-08-20T00:49:47;18.80;99.90
16198;DHT22;8206;51.440;6.914;2023-08-20T00:52:15;18.80;99.90
16198;DHT22;8206;51.440;6.914;2023-08-20T00:54:44;18.80;99.90
16198;DHT22;8206;51.440;6.914;2023-08-20T00:57:13;18.80;99.90
16198;DHT22;8206;51.440;6.914;2023-08-20T00:59:40;18.80;99.90
16198;DHT22;8206;51.440;6.914;2023-08-20T01:02:07;18.80;99.90
16198;DHT22;8206;51.440;6.914;2023-08-20T01:04:35;18.80;99.90
16198;DHT22;8206;51.440;6.914;2023-08-20T01:07:07;18.80;99.90
16198;DHT22;8206;51.440;6.914;2023-08-20T01:09:50;18.80;99.90
16198;DHT22;8206;51.440;6.914;2023-08-20T01:12:22;18.80;99.90
16198;DHT22;8206;51.440;6.914;2023-08-20T01:14:50;18.80;99.90
16198;DHT22;8206;51.440;6.914;2023-08-20T01:17:17;18.80;99.90
16198;DHT22;8206;51.440;6.914;2023-08-20T01:19:45;18.80;99.90
16198;DHT22;8206;51.440;6.914;2023-08-20T01:22:38;18.80;99.90
16198;DHT22;8206;51.440;6.914;2023-08-20T01:25:14;18.80;99.90
16198;DHT22;8206;51.440;6.914;2023-08-20T01:27:48;18.80;99.90
16198;DHT22;8206;51.440;6.914;2023-08-20T01:30:20;18.80;99.90
16198;DHT22;8206;51.440;6.914;2023-08-20T01:32:48;18.80;99.90
16198;DHT22;8206;51.440;6.914;2023-08-20T01:35:16;18.80;99.90
16198;DHT22;8206;51.440;6.914;2023-08-20T01:37:43;18.80;99.90
16198;DHT22;8206;51.440;6.914;2023-08-20T01:40:11;18.80;99.90
16198;DHT22;8206;51.440;6.914;2023-08-20T01:42:38;18.80;99.90
16198;DHT22;8206;51.440;6.914;2023-08-20T01:45:06;18.80;99.90
16198;DHT22;8206;51.440;6.914;2023-08-20T01:47:34;18.80;99.90
16198;DHT22;8206;51.440;6.914;2023-08-20T01:50:01;18.90;99.90
16198;DHT22;8206;51.440;6.914;2023-08-20T01:52:28;18.80;99.90
16198;DHT22;8206;51.440;6.914;2023-08-20T01:54:55;18.80;99.90
16198;DHT22;8206;51.440;6.914;2023-08-20T01:57:22;18.80;99.90
16198;DHT22;8206;51.440;6.914;2023-08-20T01:59:49;18.80;99.90
16198;DHT22;8206;51.440;6.914;2023-08-20T02:02:15;18.70;99.90
16198;DHT22;8206;51.440;6.914;2023-08-20T02:04:43;18.70;99.90
16198;DHT22;8206;51.440;6.914;2023-08-20T02:07:10;18.70;99.90
16198;DHT22;8206;51.440;6.914;2023-08-20T02:09:37;18.80;99.90
16198;DHT22;8206;51.440;6.914;2023-08-20T02:12:04;18.70;99.90
16198;DHT22;8206;51.440;6.914;2023-08-20T02:14:31;18.70;99.90
16198;DHT22;8206;51.440;6.914;2023-08-20T02:17:00;18.70;99.90
16198;DHT22;8206;51.440;6.914;2023-08-20T02:19:27;18.70;99.90
16198;DHT22;8206;51.440;6.914;2023-08-20T02:21:55;18.60;99.90
16198;DHT22;8206;51.440;6.914;2023-08-20T02:24:21;18.60;99.90
16198;DHT22;8206;51.440;6.914;2023-08-20T02:26:48;18.70;99.90
16198;DHT22;8206;51.440;6.914;2023-08-20T02:29:15;18.90;99.90
16198;DHT22;8206;51.440;6.914;2023-08-20T02:31:42;19.00;99.90
16198;DHT22;8206;51.440;6.914;2023-08-20T02:34:08;19.10;99.90
16198;DHT22;8206;51.440;6.914;2023-08-20T02:36:35;19.20;99.90
16198;DHT22;8206;51.440;6.914;2023-08-20T02:39:03;19.30;99.90
16198;DHT22;8206;51.440;6.914;2023-08-20T02:41:33;19.40;99.90
16198;DHT22;8206;51.440;6.914;2023-08-20T02:43:59;19.50;99.90
16198;DHT22;8206;51.440;6.914;2023-08-20T02:46:26;19.50;99.90
16198;DHT22;8206;51.440;6.914;2023-08-20T02:48:53;19.50;99.90
16198;DHT22;8206;51.440;6.914;2023-08-20T02:51:19;19.40;99.90
16198;DHT22;8206;51.440;6.914;2023-08-20T02:53:46;19.40;99.90
16198;DHT22;8206;51.440;6.914;2023-08-20T02:56:14;19.30;99.90
16198;DHT22;8206;51.440;6.914;2023-08-20T02:58:41;19.10;99.90
16198;DHT22;8206;51.440;6.914;2023-08-20T03:01:17;19.10;99.90
16198;DHT22;8206;51.440;6.914;2023-08-20T03:03:44;19.10;99.90
16198;DHT22;8206;51.440;6.914;2023-08-20T03:06:11;19.00;99.90
16198;DHT22;8206;51.440;6.914;2023-08-20T03:08:37;19.00;99.90
16198;DHT22;8206;51.440;6.914;2023-08-20T03:11:04;19.00;99.90
16198;DHT22;8206;51.440;6.914;2023-08-20T03:13:32;19.00;99.90
16198;DHT22;8206;51.440;6.914;2023-08-20T03:15:59;19.00;99.90
16198;DHT22;8206;51.440;6.914;2023-08-20T03:18:26;19.00;99.90
16198;DHT22;8206;51.440;6.914;2023-08-20T03:20:54;19.10;99.90
16198;DHT22;8206;51.440;6.914;2023-08-20T03:23:20;19.00;99.90
16198;DHT22;8206;51.440;6.914;2023-08-20T03:25:47;19.00;99.90
16198;DHT22;8206;51.440;6.914;2023-08-20T03:28:14;19.00;99.90
16198;DHT22;8206;51.440;6.914;2023-08-20T03:30:42;19.00;99.90
16198;DHT22;8206;51.440;6.914;2023-08-20T03:33:09;19.00;99.90
16198;DHT22;8206;51.440;6.914;2023-08-20T03:35:36;19.00;99.90
16198;DHT22;8206;51.440;6.914;2023-08-20T03:38:02;19.10;99.90
16198;DHT22;8206;51.440;6.914;2023-08-20T03:40:29;19.00;99.90
16198;DHT22;8206;51.440;6.914;2023-08-20T03:42:56;19.00;99.90
16198;DHT22;8206;51.440;6.914;2023-08-20T03:45:22;19.00;99.90
16198;DHT22;8206;51.440;6.914;2023-08-20T03:47:50;19.00;99.90
16198;DHT22;8206;51.440;6.914;2023-08-20T03:50:16;18.90;99.90
16198;DHT22;8206;51.440;6.914;2023-08-20T03:52:43;18.90;99.90
16198;DHT22;8206;51.440;6.914;2023-08-20T03:55:10;18.80;99.90
16198;DHT22;8206;51.440;6.914;2023-08-20T03:57:36;18.80;99.90
16198;DHT22;8206;51.440;6.914;2023-08-20T04:00:04;18.70;99.90
16198;DHT22;8206;51.440;6.914;2023-08-20T04:02:34;18.60;99.90
16198;DHT22;8206;51.440;6.914;2023-08-20T04:05:02;18.60;99.90
16198;DHT22;8206;51.440;6.914;2023-08-20T04:07:29;18.50;99.90
16198;DHT22;8206;51.440;6.914;2023-08-20T04:09:56;18.50;99.90
16198;DHT22;8206;51.440;6.914;2023-08-20T04:12:23;18.40;99.90
16198;DHT22;8206;51.440;6.914;2023-08-20T04:14:50;18.40;99.90
16198;DHT22;8206;51.440;6.914;2023-08-20T04:17:16;18.40;99.90
16198;DHT22;8206;51.440;6.914;2023-08-20T04:19:43;18.40;99.90
16198;DHT22;8206;51.440;6.914;2023-08-20T04:22:11;18.30;99.90
16198;DHT22;8206;51.440;6.914;2023-08-20T04:24:38;18.30;99.90
16198;DHT22;8206;51.440;6.914;2023-08-20T04:27:05;18.30;99.90
16198;DHT22;8206;51.440;6.914;2023-08-20T04:29:32;18.20;99.90
16198;DHT22;8206;51.440;6.914;2023-08-20T04:31:59;18.20;99.90
16198;DHT22;8206;51.440;6.914;2023-08-20T04:34:26;18.20;99.90
16198;DHT22;8206;51.440;6.914;2023-08-20T04:36:53;18.30;99.90
16198;DHT22;8206;51.440;6.914;2023-08-20T04:39:21;18.30;99.90
16198;DHT22;8206;51.440;6.914;2023-08-20T04:41:48;18.30;99.90
16198;DHT22;8206;51.440;6.914;2023-08-20T04:44:14;18.30;99.90
16198;DHT22;8206;51.440;6.914;2023-08-20T04:46:41;18.30;99.90
16198;DHT22;8206;51.440;6.914;2023-08-20T04:49:08;18.40;99.90
16198;DHT22;8206;51.440;6.914;2023-08-20T04:51:35;18.50;99.90
16198;DHT22;8206;51.440;6.914;2023-08-20T04:54:01;18.50;1.00
16198;DHT22;8206;51.440;6.914;2023-08-20T04:56:29;18.50;1.00
16198;DHT22;8206;51.440;6.914;2023-08-20T04:58:56;18.50;1.00
16198;DHT22;8206;51.440;6.914;2023-08-20T05:01:23;18.50;99.90
16198;DHT22;8206;51.440;6.914;2023-08-20T05:03:50;18.50;1.00
16198;DHT22;8206;51.440;6.914;2023-08-20T05:06:16;18.60;1.00
16198;DHT22;8206;51.440;6.914;2023-08-20T05:08:43;18.60;1.00
16198;DHT22;8206;51.440;6.914;2023-08-20T05:11:09;18.70;1.00
16198;DHT22;8206;51.440;6.914;2023-08-20T05:13:37;18.90;99.90
16198;DHT22;8206;51.440;6.914;2023-08-20T05:16:04;19.10;99.90
16198;DHT22;8206;51.440;6.914;2023-08-20T05:18:31;19.30;1.00
16198;DHT22;8206;51.440;6.914;2023-08-20T05:20:57;19.70;1.00
16198;DHT22;8206;51.440;6.914;2023-08-20T05:23:24;20.10;99.90
16198;DHT22;8206;51.440;6.914;2023-08-20T05:25:51;20.40;1.00
16198;DHT22;8206;51.440;6.914;2023-08-20T05:28:17;20.80;1.00
16198;DHT22;8206;51.440;6.914;2023-08-20T05:30:53;21.10;1.00
16198;DHT22;8206;51.440;6.914;2023-08-20T05:33:20;21.30;1.00
16198;DHT22;8206;51.440;6.914;2023-08-20T05:35:47;21.60;1.00
16198;DHT22;8206;51.440;6.914;2023-08-20T05:38:13;21.80;1.00
16198;DHT22;8206;51.440;6.914;2023-08-20T05:40:40;22.10;1.00
16198;DHT22;8206;51.440;6.914;2023-08-20T05:43:07;22.40;1.00
16198;DHT22;8206;51.440;6.914;2023-08-20T05:45:34;22.80;1.00
16198;DHT22;8206;51.440;6.914;2023-08-20T05:48:03;23.20;1.00
16198;DHT22;8206;51.440;6.914;2023-08-20T05:50:29;23.50;1.00
16198;DHT22;8206;51.440;6.914;2023-08-20T05:52:56;23.80;1.00
16198;DHT22;8206;51.440;6.914;2023-08-20T05:55:23;24.10;1.00
16198;DHT22;8206;51.440;6.914;2023-08-20T05:57:50;24.10;1.00
16198;DHT22;8206;51.440;6.914;2023-08-20T06:00:17;24.10;1.00
16198;DHT22;8206;51.440;6.914;2023-08-20T06:02:44;24.20;1.00
16198;DHT22;8206;51.440;6.914;2023-08-20T06:05:12;24.50;1.00
16198;DHT22;8206;51.440;6.914;2023-08-20T06:07:39;25.00;1.00
16198;DHT22;8206;51.440;6.914;2023-08-20T06:10:07;25.30;1.00
16198;DHT22;8206;51.440;6.914;2023-08-20T06:12:33;25.80;1.00
16198;DHT22;8206;51.440;6.914;2023-08-20T06:15:00;26.20;1.00
16198;DHT22;8206;51.440;6.914;2023-08-20T06:17:27;26.80;1.00
16198;DHT22;8206;51.440;6.914;2023-08-20T06:19:53;27.40;1.00
16198;DHT22;8206;51.440;6.914;2023-08-20T06:22:21;27.80;1.00
16198;DHT22;8206;51.440;6.914;2023-08-20T06:24:48;27.90;1.00
16198;DHT22;8206;51.440;6.914;2023-08-20T06:27:15;28.10;99.90
16198;DHT22;8206;51.440;6.914;2023-08-20T06:29:42;28.40;99.90
16198;DHT22;8206;51.440;6.914;2023-08-20T06:32:08;28.40;99.90
16198;DHT22;8206;51.440;6.914;2023-08-20T06:34:35;28.50;99.90
16198;DHT22;8206;51.440;6.914;2023-08-20T06:37:02;28.60;99.90
16198;DHT22;8206;51.440;6.914;2023-08-20T06:39:30;28.10;99.90
16198;DHT22;8206;51.440;6.914;2023-08-20T06:41:57;27.90;99.90
16198;DHT22;8206;51.440;6.914;2023-08-20T06:44:23;27.80;99.90
16198;DHT22;8206;51.440;6.914;2023-08-20T06:46:50;27.60;99.90
16198;DHT22;8206;51.440;6.914;2023-08-20T06:49:17;27.50;99.90
16198;DHT22;8206;51.440;6.914;2023-08-20T06:51:43;27.30;99.90
16198;DHT22;8206;51.440;6.914;2023-08-20T06:54:10;27.00;99.90
16198;DHT22;8206;51.440;6.914;2023-08-20T06:56:38;26.80;1.00
16198;DHT22;8206;51.440;6.914;2023-08-20T06:59:05;26.80;1.00
16198;DHT22;8206;51.440;6.914;2023-08-20T07:01:31;26.50;1.00
16198;DHT22;8206;51.440;6.914;2023-08-20T07:03:58;26.30;1.00
16198;DHT22;8206;51.440;6.914;2023-08-20T07:06:25;26.20;1.00
16198;DHT22;8206;51.440;6.914;2023-08-20T07:08:52;26.00;1.00
16198;DHT22;8206;51.440;6.914;2023-08-20T07:11:18;25.80;1.00
16198;DHT22;8206;51.440;6.914;2023-08-20T07:13:46;25.60;1.00
16198;DHT22;8206;51.440;6.914;2023-08-20T07:16:13;25.40;1.00
16198;DHT22;8206;51.440;6.914;2023-08-20T07:18:40;25.20;1.00
16198;DHT22;8206;51.440;6.914;2023-08-20T07:21:06;25.00;1.00
16198;DHT22;8206;51.440;6.914;2023-08-20T07:23:34;25.00;1.00
16198;DHT22;8206;51.440;6.914;2023-08-20T07:26:05;25.00;1.00
16198;DHT22;8206;51.440;6.914;2023-08-20T07:28:32;24.90;1.00
16198;DHT22;8206;51.440;6.914;2023-08-20T07:31:14;24.80;1.00
16198;DHT22;8206;51.440;6.914;2023-08-20T07:33:41;24.80;1.00
16198;DHT22;8206;51.440;6.914;2023-08-20T07:36:11;24.90;1.00
16198;DHT22;8206;51.440;6.914;2023-08-20T07:38:38;25.20;1.00
16198;DHT22;8206;51.440;6.914;2023-08-20T07:41:06;25.30;1.00
16198;DHT22;8206;51.440;6.914;2023-08-20T07:43:33;25.50;1.00
16198;DHT22;8206;51.440;6.914;2023-08-20T07:45:59;25.60;1.00
16198;DHT22;8206;51.440;6.914;2023-08-20T07:48:27;25.60;1.00
16198;DHT22;8206;51.440;6.914;2023-08-20T07:50:54;25.70;1.00
16198;DHT22;8206;51.440;6.914;2023-08-20T07:53:21;25.80;1.00
16198;DHT22;8206;51.440;6.914;2023-08-20T07:55:48;25.70;1.00
16198;DHT22;8206;51.440;6.914;2023-08-20T07:58:14;25.80;1.00
16198;DHT22;8206;51.440;6.914;2023-08-20T08:00:41;25.90;1.00
16198;DHT22;8206;51.440;6.914;2023-08-20T08:03:08;26.00;1.00
16198;DHT22;8206;51.440;6.914;2023-08-20T08:05:37;26.10;1.00
16198;DHT22;8206;51.440;6.914;2023-08-20T08:08:04;26.00;1.00
16198;DHT22;8206;51.440;6.914;2023-08-20T08:10:31;25.90;1.00
16198;DHT22;8206;51.440;6.914;2023-08-20T08:12:57;25.70;1.00
16198;DHT22;8206;51.440;6.914;2023-08-20T08:15:24;25.60;1.00
16198;DHT22;8206;51.440;6.914;2023-08-20T08:17:51;25.50;1.00
16198;DHT22;8206;51.440;6.914;2023-08-20T08:20:17;25.80;1.00
16198;DHT22;8206;51.440;6.914;2023-08-20T08:22:45;25.80;1.00
16198;DHT22;8206;51.440;6.914;2023-08-20T08:25:12;25.70;1.00
16198;DHT22;8206;51.440;6.914;2023-08-20T08:27:39;25.50;1.00
16198;DHT22;8206;51.440;6.914;2023-08-20T08:30:06;25.50;1.00
16198;DHT22;8206;51.440;6.914;2023-08-20T08:32:33;25.60;1.00
16198;DHT22;8206;51.440;6.914;2023-08-20T08:35:00;25.80;99.90
16198;DHT22;8206;51.440;6.914;2023-08-20T08:37:26;25.80;99.90
16198;DHT22;8206;51.440;6.914;2023-08-20T08:39:55;26.10;99.90
16198;DHT22;8206;51.440;6.914;2023-08-20T08:42:22;26.20;99.90
16198;DHT22;8206;51.440;6.914;2023-08-20T08:44:50;26.40;99.90
16198;DHT22;8206;51.440;6.914;2023-08-20T08:47:18;26.50;99.90
16198;DHT22;8206;51.440;6.914;2023-08-20T08:49:45;26.60;99.90
16198;DHT22;8206;51.440;6.914;2023-08-20T08:52:13;26.60;99.90
16198;DHT22;8206;51.440;6.914;2023-08-20T08:54:40;26.90;99.90
16198;DHT22;8206;51.440;6.914;2023-08-20T08:57:08;27.10;99.90
16198;DHT22;8206;51.440;6.914;2023-08-20T08:59:35;27.50;99.90
16198;DHT22;8206;51.440;6.914;2023-08-20T09:02:01;27.60;99.90
16198;DHT22;8206;51.440;6.914;2023-08-20T09:04:33;27.80;99.90
16198;DHT22;8206;51.440;6.914;2023-08-20T09:07:00;27.80;99.90
16198;DHT22;8206;51.440;6.914;2023-08-20T09:09:29;27.80;99.90
16198;DHT22;8206;51.440;6.914;2023-08-20T09:11:56;27.70;99.90
16198;DHT22;8206;51.440;6.914;2023-08-20T09:14:28;27.90;99.90
16198;DHT22;8206;51.440;6.914;2023-08-20T09:16:55;27.70;99.90
16198;DHT22;8206;51.440;6.914;2023-08-20T09:19:22;27.80;99.90
16198;DHT22;8206;51.440;6.914;2023-08-20T09:21:49;27.70;99.90
16198;DHT22;8206;51.440;6.914;2023-08-20T09:24:25;27.50;99.90
16198;DHT22;8206;51.440;6.914;2023-08-20T09:26:57;27.20;99.90
16198;DHT22;8206;51.440;6.914;2023-08-20T09:29:25;27.10;99.90
16198;DHT22;8206;51.440;6.914;2023-08-20T09:32:00;27.20;99.90
16198;DHT22;8206;51.440;6.914;2023-08-20T09:34:36;27.50;99.90
16198;DHT22;8206;51.440;6.914;2023-08-20T09:37:03;27.80;99.90
16198;DHT22;8206;51.440;6.914;2023-08-20T09:39:30;28.10;99.90
16198;DHT22;8206;51.440;6.914;2023-08-20T09:41:58;28.30;99.90
16198;DHT22;8206;51.440;6.914;2023-08-20T09:44:33;28.40;99.90
16198;DHT22;8206;51.440;6.914;2023-08-20T09:47:02;28.20;99.90
16198;DHT22;8206;51.440;6.914;2023-08-20T09:49:30;28.10;99.90
16198;DHT22;8206;51.440;6.914;2023-08-20T09:52:01;28.10;99.90
16198;DHT22;8206;51.440;6.914;2023-08-20T09:54:45;28.00;99.90
16198;DHT22;8206;51.440;6.914;2023-08-20T09:57:24;27.80;99.90
16198;DHT22;8206;51.440;6.914;2023-08-20T09:59:54;27.50;99.90
16198;DHT22;8206;51.440;6.914;2023-08-20T10:02:21;27.40;99.90
16198;DHT22;8206;51.440;6.914;2023-08-20T10:04:49;27.40;99.90
16198;DHT22;8206;51.440;6.914;2023-08-20T10:07:16;27.60;99.90
16198;DHT22;8206;51.440;6.914;2023-08-20T10:09:43;27.90;99.90
16198;DHT22;8206;51.440;6.914;2023-08-20T10:12:12;28.00;99.90
16198;DHT22;8206;51.440;6.914;2023-08-20T10:14:39;28.20;99.90
16198;DHT22;8206;51.440;6.914;2023-08-20T10:17:08;28.40;99.90
16198;DHT22;8206;51.440;6.914;2023-08-20T10:19:36;28.60;99.90
16198;DHT22;8206;51.440;6.914;2023-08-20T10:22:03;28.90;99.90
16198;DHT22;8206;51.440;6.914;2023-08-20T10:24:40;29.00;99.90
16198;DHT22;8206;51.440;6.914;2023-08-20T10:27:08;28.80;99.90
16198;DHT22;8206;51.440;6.914;2023-08-20T10:29:36;28.30;99.90
16198;DHT22;8206;51.440;6.914;2023-08-20T10:32:05;27.90;99.90
16198;DHT22;8206;51.440;6.914;2023-08-20T10:34:35;27.70;99.90
16198;DHT22;8206;51.440;6.914;2023-08-20T10:37:03;27.60;99.90
16198;DHT22;8206;51.440;6.914;2023-08-20T10:39:30;27.80;99.90
16198;DHT22;8206;51.440;6.914;2023-08-20T10:42:21;28.10;99.90
16198;DHT22;8206;51.440;6.914;2023-08-20T10:45:00;28.50;99.90
16198;DHT22;8206;51.440;6.914;2023-08-20T10:47:36;29.00;99.90
16198;DHT22;8206;51.440;6.914;2023-08-20T10:50:05;29.50;99.90
16198;DHT22;8206;51.440;6.914;2023-08-20T10:52:38;29.90;99.90
16198;DHT22;8206;51.440;6.914;2023-08-20T10:55:06;30.20;99.90
16198;DHT22;8206;51.440;6.914;2023-08-20T10:57:34;30.20;99.90
16198;DHT22;8206;51.440;6.914;2023-08-20T11:00:03;29.90;99.90
16198;DHT22;8206;51.440;6.914;2023-08-20T11:02:35;29.60;99.90
16198;DHT22;8206;51.440;6.914;2023-08-20T11:05:09;29.40;99.90
16198;DHT22;8206;51.440;6.914;2023-08-20T11:07:42;29.20;99.90
16198;DHT22;8206;51.440;6.914;2023-08-20T11:10:10;29.20;99.90
16198;DHT22;8206;51.440;6.914;2023-08-20T11:12:38;29.20;99.90
16198;DHT22;8206;51.440;6.914;2023-08-20T11:15:05;29.50;99.90
16198;DHT22;8206;51.440;6.914;2023-08-20T11:17:32;29.60;99.90
16198;DHT22;8206;51.440;6.914;2023-08-20T11:19:59;29.50;99.90
16198;DHT22;8206;51.440;6.914;2023-08-20T11:22:27;29.40;99.90
16198;DHT22;8206;51.440;6.914;2023-08-20T11:24:56;29.40;99.90
16198;DHT22;8206;51.440;6.914;2023-08-20T11:27:26;29.50;99.90
16198;DHT22;8206;51.440;6.914;2023-08-20T11:29:53;29.50;99.90
16198;DHT22;8206;51.440;6.914;2023-08-20T11:32:22;29.40;99.90
16198;DHT22;8206;51.440;6.914;2023-08-20T11:34:49;29.20;99.90
16198;DHT22;8206;51.440;6.914;2023-08-20T11:37:18;29.10;99.90
16198;DHT22;8206;51.440;6.914;2023-08-20T11:39:47;28.90;99.90
16198;DHT22;8206;51.440;6.914;2023-08-20T11:42:14;29.00;99.90
16198;DHT22;8206;51.440;6.914;2023-08-20T11:44:46;29.10;99.90
16198;DHT22;8206;51.440;6.914;2023-08-20T11:47:14;29.30;99.90
16198;DHT22;8206;51.440;6.914;2023-08-20T11:49:40;29.40;99.90
16198;DHT22;8206;51.440;6.914;2023-08-20T11:52:07;29.50;99.90
16198;DHT22;8206;51.440;6.914;2023-08-20T11:54:35;29.70;99.90
16198;DHT22;8206;51.440;6.914;2023-08-20T11:57:04;29.80;99.90
16198;DHT22;8206;51.440;6.914;2023-08-20T11:59:31;29.90;99.90
16198;DHT22;8206;51.440;6.914;2023-08-20T12:02:00;30.00;99.90
16198;DHT22;8206;51.440;6.914;2023-08-20T12:04:27;30.20;99.90
16198;DHT22;8206;51.440;6.914;2023-08-20T12:07:02;30.40;99.90
16198;DHT22;8206;51.440;6.914;2023-08-20T12:09:30;30.20;99.90
16198;DHT22;8206;51.440;6.914;2023-08-20T12:11:57;30.00;99.90
16198;DHT22;8206;51.440;6.914;2023-08-20T12:14:25;29.80;99.90
16198;DHT22;8206;51.440;6.914;2023-08-20T12:16:54;30.00;99.90
16198;DHT22;8206;51.440;6.914;2023-08-20T12:19:20;30.10;99.90
16198;DHT22;8206;51.440;6.914;2023-08-20T12:21:48;30.00;99.90
16198;DHT22;8206;51.440;6.914;2023-08-20T12:24:15;29.40;99.90
16198;DHT22;8206;51.440;6.914;2023-08-20T12:26:42;29.00;99.90
16198;DHT22;8206;51.440;6.914;2023-08-20T12:29:09;28.60;99.90
16198;DHT22;8206;51.440;6.914;2023-08-20T12:31:37;28.40;99.90
16198;DHT22;8206;51.440;6.914;2023-08-20T12:34:04;28.10;99.90
16198;DHT22;8206;51.440;6.914;2023-08-20T12:36:31;27.90;99.90
16198;DHT22;8206;51.440;6.914;2023-08-20T12:38:57;27.80;99.90
16198;DHT22;8206;51.440;6.914;2023-08-20T12:41:24;27.70;99.90
16198;DHT22;8206;51.440;6.914;2023-08-20T12:43:51;27.60;99.90
16198;DHT22;8206;51.440;6.914;2023-08-20T12:46:18;27.50;99.90
16198;DHT22;8206;51.440;6.914;2023-08-20T12:48:46;27.40;99.90
16198;DHT22;8206;51.440;6.914;2023-08-20T12:51:13;27.50;99.90
16198;DHT22;8206;51.440;6.914;2023-08-20T12:53:42;27.40;99.90
16198;DHT22;8206;51.440;6.914;2023-08-20T12:56:09;27.50;99.90
16198;DHT22;8206;51.440;6.914;2023-08-20T12:58:37;27.60;99.90
16198;DHT22;8206;51.440;6.914;2023-08-20T13:01:04;27.80;99.90
16198;DHT22;8206;51.440;6.914;2023-08-20T13:03:31;27.80;99.90
16198;DHT22;8206;51.440;6.914;2023-08-20T13:05:59;27.90;99.90
16198;DHT22;8206;51.440;6.914;2023-08-20T13:08:27;27.90;99.90
16198;DHT22;8206;51.440;6.914;2023-08-20T13:10:55;28.10;99.90
16198;DHT22;8206;51.440;6.914;2023-08-20T13:13:23;28.00;99.90
16198;DHT22;8206;51.440;6.914;2023-08-20T13:15:51;27.80;99.90
16198;DHT22;8206;51.440;6.914;2023-08-20T13:18:19;27.60;99.90
16198;DHT22;8206;51.440;6.914;2023-08-20T13:20:49;27.50;99.90
16198;DHT22;8206;51.440;6.914;2023-08-20T13:23:17;27.40;99.90
16198;DHT22;8206;51.440;6.914;2023-08-20T13:25:43;27.70;99.90
16198;DHT22;8206;51.440;6.914;2023-08-20T13:28:10;27.70;99.90
16198;DHT22;8206;51.440;6.914;2023-08-20T13:30:37;27.80;99.90
16198;DHT22;8206;51.440;6.914;2023-08-20T13:33:04;27.90;99.90
16198;DHT22;8206;51.440;6.914;2023-08-20T13:35:31;28.00;99.90
16198;DHT22;8206;51.440;6.914;2023-08-20T13:37:57;27.90;99.90
16198;DHT22;8206;51.440;6.914;2023-08-20T13:40:25;27.80;99.90
16198;DHT22;8206;51.440;6.914;2023-08-20T13:42:52;27.60;99.90
16198;DHT22;8206;51.440;6.914;2023-08-20T13:45:19;27.80;99.90
16198;DHT22;8206;51.440;6.914;2023-08-20T13:47:45;27.80;99.90
16198;DHT22;8206;51.440;6.914;2023-08-20T13:50:12;27.80;99.90
16198;DHT22;8206;51.440;6.914;2023-08-20T13:52:39;27.70;99.90
16198;DHT22;8206;51.440;6.914;2023-08-20T13:55:06;27.50;99.90
16198;DHT22;8206;51.440;6.914;2023-08-20T13:57:35;27.40;99.90
16198;DHT22;8206;51.440;6.914;2023-08-20T14:00:02;27.20;99.90
16198;DHT22;8206;51.440;6.914;2023-08-20T14:02:33;27.10;99.90
16198;DHT22;8206;51.440;6.914;2023-08-20T14:04:59;27.20;99.90
16198;DHT22;8206;51.440;6.914;2023-08-20T14:07:26;27.20;99.90
16198;DHT22;8206;51.440;6.914;2023-08-20T14:09:53;27.20;99.90
16198;DHT22;8206;51.440;6.914;2023-08-20T14:12:19;27.20;99.90
16198;DHT22;8206;51.440;6.914;2023-08-20T14:14:48;27.10;99.90
16198;DHT22;8206;51.440;6.914;2023-08-20T14:17:15;27.10;99.90
16198;DHT22;8206;51.440;6.914;2023-08-20T14:19:42;27.00;99.90
16198;DHT22;8206;51.440;6.914;2023-08-20T14:22:09;27.00;99.90
16198;DHT22;8206;51.440;6.914;2023-08-20T14:24:35;27.10;99.90
16198;DHT22;8206;51.440;6.914;2023-08-20T14:27:02;27.20;99.90
16198;DHT22;8206;51.440;6.914;2023-08-20T14:29:29;27.30;99.90
16198;DHT22;8206;51.440;6.914;2023-08-20T14:31:57;27.30;99.90
16198;DHT22;8206;51.440;6.914;2023-08-20T14:34:24;27.30;99.90
16198;DHT22;8206;51.440;6.914;2023-08-20T14:36:50;27.30;99.90
16198;DHT22;8206;51.440;6.914;2023-08-20T14:39:17;27.10;99.90
16198;DHT22;8206;51.440;6.914;2023-08-20T14:41:44;27.00;99.90
16198;DHT22;8206;51.440;6.914;2023-08-20T14:44:10;26.90;99.90
16198;DHT22;8206;51.440;6.914;2023-08-20T14:46:37;26.90;99.90
16198;DHT22;8206;51.440;6.914;2023-08-20T14:49:05;27.00;99.90
16198;DHT22;8206;51.440;6.914;2023-08-20T14:51:32;27.00;99.90
16198;DHT22;8206;51.440;6.914;2023-08-20T14:53:59;27.00;99.90
16198;DHT22;8206;51.440;6.914;2023-08-20T14:56:26;26.90;99.90
16198;DHT22;8206;51.440;6.914;2023-08-20T14:58:53;26.80;99.90
16198;DHT22;8206;51.440;6.914;2023-08-20T15:01:19;26.90;99.90
16198;DHT22;8206;51.440;6.914;2023-08-20T15:03:47;27.00;99.90
16198;DHT22;8206;51.440;6.914;2023-08-20T15:06:15;27.20;99.90
16198;DHT22;8206;51.440;6.914;2023-08-20T15:08:41;27.30;99.90
16198;DHT22;8206;51.440;6.914;2023-08-20T15:11:08;27.20;99.90
16198;DHT22;8206;51.440;6.914;2023-08-20T15:13:35;27.10;99.90
16198;DHT22;8206;51.440;6.914;2023-08-20T15:16:01;27.00;99.90
16198;DHT22;8206;51.440;6.914;2023-08-20T15:18:28;27.00;99.90
16198;DHT22;8206;51.440;6.914;2023-08-20T15:20:56;27.00;99.90
16198;DHT22;8206;51.440;6.914;2023-08-20T15:23:25;27.00;99.90
16198;DHT22;8206;51.440;6.914;2023-08-20T15:25:52;27.00;99.90
16198;DHT22;8206;51.440;6.914;2023-08-20T15:28:19;27.00;99.90
16198;DHT22;8206;51.440;6.914;2023-08-20T15:30:46;27.10;99.90
16198;DHT22;8206;51.440;6.914;2023-08-20T15:33:12;27.30;99.90
16198;DHT22;8206;51.440;6.914;2023-08-20T15:35:40;27.40;99.90
16198;DHT22;8206;51.440;6.914;2023-08-20T15:38:07;27.40;99.90
16198;DHT22;8206;51.440;6.914;2023-08-20T15:40:36;27.40;99.90
16198;DHT22;8206;51.440;6.914;2023-08-20T15:43:03;27.50;99.90
16198;DHT22;8206;51.440;6.914;2023-08-20T15:45:30;27.50;99.90
16198;DHT22;8206;51.440;6.914;2023-08-20T15:47:57;27.60;99.90
16198;DHT22;8206;51.440;6.914;2023-08-20T15:50:23;27.70;99.90
16198;DHT22;8206;51.440;6.914;2023-08-20T15:52:50;27.80;99.90